sensor_id;sensor_type;location;lat;lon;timestamp;P1;durP1;ratioP1;P2;durP2;ratioP2
21827;SDS011;11076;47.942;11.804;2023-02-11T00:03:43;8.27;;;3.77;;
21827;SDS011;11076;47.942;11.804;2023-02-11T00:08:46;7.67;;;4.70;;
21827;SDS011;11076;47.942;11.804;2023-02-11T00:13:48;7.23;;;4.23;;
21827;SDS011;11076;47.942;11.804;2023-02-11T00:18:51;8.47;;;4.00;;
21827;SDS011;11076;47.942;11.804;2023-02-11T00:23:55;6.67;;;3.57;;
21827;SDS011;11076;47.942;11.804;2023-02-11T00:29:00;5.07;;;3.60;;
21827;SDS011;11076;47.942;11.804;2023-02-11T00:34:05;7.00;;;3.73;;
21827;SDS011;11076;47.942;11.804;2023-02-11T00:39:08;2.93;;;2.27;;
21827;SDS011;11076;47.942;11.804;2023-02-11T00:44:10;6.77;;;2.03;;
21827;SDS011;11076;47.942;11.804;2023-02-11T00:49:13;6.47;;;3.30;;
21827;SDS011;11076;47.942;11.804;2023-02-11T00:54:16;3.70;;;2.83;;
21827;SDS011;11076;47.942;11.804;2023-02-11T00:59:19;3.77;;;2.57;;
21827;SDS011;11076;47.942;11.804;2023-02-11T01:04:21;4.17;;;3.33;;
21827;SDS011;11076;47.942;11.804;2023-02-11T01:09:26;4.80;;;3.07;;
21827;SDS011;11076;47.942;11.804;2023-02-11T01:14:28;4.80;;;3.67;;
21827;SDS011;11076;47.942;11.804;2023-02-11T01:19:30;4.63;;;3.00;;
21827;SDS011;11076;47.942;11.804;2023-02-11T01:24:33;7.27;;;3.23;;
21827;SDS011;11076;47.942;11.804;2023-02-11T01:29:35;4.87;;;3.20;;
21827;SDS011;11076;47.942;11.804;2023-02-11T01:34:37;7.40;;;3.33;;
21827;SDS011;11076;47.942;11.804;2023-02-11T01:39:40;6.77;;;3.07;;
21827;SDS011;11076;47.942;11.804;2023-02-11T01:44:42;6.87;;;3.23;;
21827;SDS011;11076;47.942;11.804;2023-02-11T01:49:46;9.53;;;3.53;;
21827;SDS011;11076;47.942;11.804;2023-02-11T01:54:53;7.50;;;3.60;;
21827;SDS011;11076;47.942;11.804;2023-02-11T02:00:24;6.27;;;3.23;;
21827;SDS011;11076;47.942;11.804;2023-02-11T02:05:41;7.43;;;3.17;;
21827;SDS011;11076;47.942;11.804;2023-02-11T02:10:54;5.67;;;3.40;;
21827;SDS011;11076;47.942;11.804;2023-02-11T02:16:00;7.27;;;2.67;;
21827;SDS011;11076;47.942;11.804;2023-02-11T02:42:46;4.30;;;2.70;;
21827;SDS011;11076;47.942;11.804;2023-02-11T02:47:49;5.73;;;3.33;;
21827;SDS011;11076;47.942;11.804;2023-02-11T03:09:05;4.10;;;2.03;;
21827;SDS011;11076;47.942;11.804;2023-02-11T03:14:14;2.20;;;1.67;;
21827;SDS011;11076;47.942;11.804;2023-02-11T03:19:20;4.10;;;2.87;;
21827;SDS011;11076;47.942;11.804;2023-02-11T03:24:29;2.33;;;2.10;;
21827;SDS011;11076;47.942;11.804;2023-02-11T03:29:35;2.77;;;2.20;;
21827;SDS011;11076;47.942;11.804;2023-02-11T03:39:55;3.87;;;2.07;;
21827;SDS011;11076;47.942;11.804;2023-02-11T03:45:03;2.57;;;1.70;;
21827;SDS011;11076;47.942;11.804;2023-02-11T03:50:09;1.83;;;1.60;;
21827;SDS011;11076;47.942;11.804;2023-02-11T03:55:17;2.37;;;2.17;;
21827;SDS011;11076;47.942;11.804;2023-02-11T04:00:28;4.77;;;2.27;;
21827;SDS011;11076;47.942;11.804;2023-02-11T04:05:31;2.27;;;1.73;;
21827;SDS011;11076;47.942;11.804;2023-02-11T04:10:34;2.60;;;2.13;;
21827;SDS011;11076;47.942;11.804;2023-02-11T04:15:36;3.03;;;2.00;;
21827;SDS011;11076;47.942;11.804;2023-02-11T04:20:39;2.30;;;2.03;;
21827;SDS011;11076;47.942;11.804;2023-02-11T04:25:41;2.63;;;2.20;;
21827;SDS011;11076;47.942;11.804;2023-02-11T04:30:44;5.00;;;2.13;;
21827;SDS011;11076;47.942;11.804;2023-02-11T04:35:46;1.07;;;1.07;;
21827;SDS011;11076;47.942;11.804;2023-02-11T04:40:49;2.73;;;2.03;;
21827;SDS011;11076;47.942;11.804;2023-02-11T04:45:55;4.93;;;2.17;;
21827;SDS011;11076;47.942;11.804;2023-02-11T04:50:58;34.37;;;11.03;;
21827;SDS011;11076;47.942;11.804;2023-02-11T04:56:00;3.33;;;1.87;;
21827;SDS011;11076;47.942;11.804;2023-02-11T05:01:06;3.97;;;2.53;;
21827;SDS011;11076;47.942;11.804;2023-02-11T05:06:10;1.87;;;1.73;;
21827;SDS011;11076;47.942;11.804;2023-02-11T05:11:14;2.17;;;2.00;;
21827;SDS011;11076;47.942;11.804;2023-02-11T05:16:18;0.93;;;0.70;;
21827;SDS011;11076;47.942;11.804;2023-02-11T05:21:21;4.70;;;2.87;;
21827;SDS011;11076;47.942;11.804;2023-02-11T05:26:24;1.93;;;1.73;;
21827;SDS011;11076;47.942;11.804;2023-02-11T05:31:26;2.97;;;2.53;;
21827;SDS011;11076;47.942;11.804;2023-02-11T05:36:29;3.77;;;2.67;;
21827;SDS011;11076;47.942;11.804;2023-02-11T05:41:34;3.10;;;2.50;;
21827;SDS011;11076;47.942;11.804;2023-02-11T05:46:36;3.73;;;2.63;;
21827;SDS011;11076;47.942;11.804;2023-02-11T05:51:39;4.50;;;2.37;;
21827;SDS011;11076;47.942;11.804;2023-02-11T05:56:41;8.67;;;2.40;;
21827;SDS011;11076;47.942;11.804;2023-02-11T06:01:45;5.50;;;2.33;;
21827;SDS011;11076;47.942;11.804;2023-02-11T06:06:48;4.33;;;2.57;;
21827;SDS011;11076;47.942;11.804;2023-02-11T06:11:50;4.30;;;2.37;;
21827;SDS011;11076;47.942;11.804;2023-02-11T06:16:52;3.30;;;2.50;;
21827;SDS011;11076;47.942;11.804;2023-02-11T06:21:55;2.17;;;1.70;;
21827;SDS011;11076;47.942;11.804;2023-02-11T06:26:57;3.57;;;2.07;;
21827;SDS011;11076;47.942;11.804;2023-02-11T06:32:00;3.73;;;2.30;;
21827;SDS011;11076;47.942;11.804;2023-02-11T06:37:02;2.43;;;2.03;;
21827;SDS011;11076;47.942;11.804;2023-02-11T06:42:05;1.43;;;1.33;;
21827;SDS011;11076;47.942;11.804;2023-02-11T06:47:08;2.87;;;1.47;;
21827;SDS011;11076;47.942;11.804;2023-02-11T06:52:11;2.17;;;1.97;;
21827;SDS011;11076;47.942;11.804;2023-02-11T06:57:13;7.03;;;3.40;;
21827;SDS011;11076;47.942;11.804;2023-02-11T07:02:15;3.70;;;2.60;;
21827;SDS011;11076;47.942;11.804;2023-02-11T07:07:21;3.03;;;2.10;;
21827;SDS011;11076;47.942;11.804;2023-02-11T07:12:23;5.40;;;1.90;;
21827;SDS011;11076;47.942;11.804;2023-02-11T07:17:26;4.23;;;2.10;;
21827;SDS011;11076;47.942;11.804;2023-02-11T07:22:28;3.13;;;2.17;;
21827;SDS011;11076;47.942;11.804;2023-02-11T07:27:30;3.90;;;2.27;;
21827;SDS011;11076;47.942;11.804;2023-02-11T07:32:33;2.00;;;1.80;;
21827;SDS011;11076;47.942;11.804;2023-02-11T07:37:35;7.07;;;2.70;;
21827;SDS011;11076;47.942;11.804;2023-02-11T07:42:38;8.47;;;2.73;;
21827;SDS011;11076;47.942;11.804;2023-02-11T07:47:42;5.03;;;2.60;;
21827;SDS011;11076;47.942;11.804;2023-02-11T07:52:44;4.70;;;2.83;;
21827;SDS011;11076;47.942;11.804;2023-02-11T07:57:46;6.90;;;2.93;;
21827;SDS011;11076;47.942;11.804;2023-02-11T08:02:49;9.40;;;2.90;;
21827;SDS011;11076;47.942;11.804;2023-02-11T08:07:52;7.43;;;2.87;;
21827;SDS011;11076;47.942;11.804;2023-02-11T08:12:55;5.77;;;2.90;;
21827;SDS011;11076;47.942;11.804;2023-02-11T08:17:57;4.97;;;2.87;;
21827;SDS011;11076;47.942;11.804;2023-02-11T08:23:00;6.40;;;2.50;;
21827;SDS011;11076;47.942;11.804;2023-02-11T08:28:03;7.33;;;2.93;;
21827;SDS011;11076;47.942;11.804;2023-02-11T08:33:05;10.13;;;5.33;;
21827;SDS011;11076;47.942;11.804;2023-02-11T08:38:07;12.30;;;5.03;;
21827;SDS011;11076;47.942;11.804;2023-02-11T08:43:10;20.23;;;6.73;;
21827;SDS011;11076;47.942;11.804;2023-02-11T08:48:12;12.33;;;5.27;;
21827;SDS011;11076;47.942;11.804;2023-02-11T08:53:15;9.60;;;4.87;;
21827;SDS011;11076;47.942;11.804;2023-02-11T08:58:17;15.93;;;5.67;;
21827;SDS011;11076;47.942;11.804;2023-02-11T09:03:20;10.13;;;4.60;;
21827;SDS011;11076;47.942;11.804;2023-02-11T09:08:22;7.77;;;4.47;;
21827;SDS011;11076;47.942;11.804;2023-02-11T09:13:24;10.50;;;3.73;;
21827;SDS011;11076;47.942;11.804;2023-02-11T09:18:27;4.27;;;2.77;;
21827;SDS011;11076;47.942;11.804;2023-02-11T09:23:29;7.57;;;4.43;;
21827;SDS011;11076;47.942;11.804;2023-02-11T09:28:32;12.43;;;3.57;;
21827;SDS011;11076;47.942;11.804;2023-02-11T09:33:34;11.80;;;3.40;;
21827;SDS011;11076;47.942;11.804;2023-02-11T09:38:37;11.10;;;3.67;;
21827;SDS011;11076;47.942;11.804;2023-02-11T09:43:43;3.80;;;2.93;;
21827;SDS011;11076;47.942;11.804;2023-02-11T09:48:49;6.90;;;2.90;;
21827;SDS011;11076;47.942;11.804;2023-02-11T09:53:55;2.97;;;2.10;;
21827;SDS011;11076;47.942;11.804;2023-02-11T09:59:04;8.60;;;3.57;;
21827;SDS011;11076;47.942;11.804;2023-02-11T10:04:12;7.53;;;3.70;;
21827;SDS011;11076;47.942;11.804;2023-02-11T10:20:19;7.47;;;3.33;;
21827;SDS011;11076;47.942;11.804;2023-02-11T10:25:41;10.23;;;3.37;;
21827;SDS011;11076;47.942;11.804;2023-02-11T10:36:13;7.00;;;4.13;;
21827;SDS011;11076;47.942;11.804;2023-02-11T10:41:24;6.20;;;3.30;;
21827;SDS011;11076;47.942;11.804;2023-02-11T10:46:32;6.03;;;3.40;;
21827;SDS011;11076;47.942;11.804;2023-02-11T10:51:37;10.07;;;3.90;;
21827;SDS011;11076;47.942;11.804;2023-02-11T10:56:44;29.57;;;3.57;;
21827;SDS011;11076;47.942;11.804;2023-02-11T11:07:12;5.80;;;2.20;;
21827;SDS011;11076;47.942;11.804;2023-02-11T11:12:33;2.95;;;1.63;;
21827;SDS011;11076;47.942;11.804;2023-02-11T11:17:41;2.40;;;2.15;;
21827;SDS011;11076;47.942;11.804;2023-02-11T11:22:43;1.85;;;1.60;;
21827;SDS011;11076;47.942;11.804;2023-02-11T11:27:47;10.15;;;1.98;;
21827;SDS011;11076;47.942;11.804;2023-02-11T11:32:54;2.80;;;1.95;;
21827;SDS011;11076;47.942;11.804;2023-02-11T11:37:58;3.47;;;2.00;;
21827;SDS011;11076;47.942;11.804;2023-02-11T11:48:19;2.38;;;1.67;;
21827;SDS011;11076;47.942;11.804;2023-02-11T11:58:52;2.92;;;1.90;;
21827;SDS011;11076;47.942;11.804;2023-02-11T12:09:52;2.95;;;1.90;;
21827;SDS011;11076;47.942;11.804;2023-02-11T12:30:48;4.45;;;1.60;;
21827;SDS011;11076;47.942;11.804;2023-02-11T12:41:40;3.83;;;2.42;;
21827;SDS011;11076;47.942;11.804;2023-02-11T12:47:18;4.70;;;1.95;;
21827;SDS011;11076;47.942;11.804;2023-02-11T12:57:58;5.80;;;2.38;;
21827;SDS011;11076;47.942;11.804;2023-02-11T13:08:19;2.25;;;1.65;;
21827;SDS011;11076;47.942;11.804;2023-02-11T13:13:46;5.75;;;1.42;;
21827;SDS011;11076;47.942;11.804;2023-02-11T13:19:00;8.55;;;3.28;;
21827;SDS011;11076;47.942;11.804;2023-02-11T13:29:24;5.97;;;2.10;;
21827;SDS011;11076;47.942;11.804;2023-02-11T13:39:54;3.00;;;1.70;;
21827;SDS011;11076;47.942;11.804;2023-02-11T13:45:15;5.40;;;2.37;;
21827;SDS011;11076;47.942;11.804;2023-02-11T13:50:29;5.50;;;2.67;;
21827;SDS011;11076;47.942;11.804;2023-02-11T13:55:41;3.80;;;2.27;;
21827;SDS011;11076;47.942;11.804;2023-02-11T14:00:50;8.70;;;4.03;;
21827;SDS011;11076;47.942;11.804;2023-02-11T14:06:14;5.53;;;2.65;;
21827;SDS011;11076;47.942;11.804;2023-02-11T14:43:12;12.85;;;5.00;;
21827;SDS011;11076;47.942;11.804;2023-02-11T14:48:21;7.10;;;3.45;;
21827;SDS011;11076;47.942;11.804;2023-02-11T14:53:32;10.52;;;3.63;;
21827;SDS011;11076;47.942;11.804;2023-02-11T14:58:36;6.43;;;3.90;;
21827;SDS011;11076;47.942;11.804;2023-02-11T15:03:39;6.68;;;3.70;;
21827;SDS011;11076;47.942;11.804;2023-02-11T15:08:54;9.98;;;3.80;;
21827;SDS011;11076;47.942;11.804;2023-02-11T15:14:08;10.32;;;5.00;;
21827;SDS011;11076;47.942;11.804;2023-02-11T15:24:24;12.50;;;4.50;;
21827;SDS011;11076;47.942;11.804;2023-02-11T15:29:28;13.50;;;4.97;;
21827;SDS011;11076;47.942;11.804;2023-02-11T15:34:37;18.87;;;6.37;;
21827;SDS011;11076;47.942;11.804;2023-02-11T15:39:40;71.60;;;25.73;;
21827;SDS011;11076;47.942;11.804;2023-02-11T15:44:43;35.50;;;14.00;;
21827;SDS011;11076;47.942;11.804;2023-02-11T15:49:46;8.05;;;4.05;;
21827;SDS011;11076;47.942;11.804;2023-02-11T15:54:51;9.40;;;4.30;;
21827;SDS011;11076;47.942;11.804;2023-02-11T15:59:55;9.90;;;3.80;;
21827;SDS011;11076;47.942;11.804;2023-02-11T16:05:01;8.80;;;3.83;;
21827;SDS011;11076;47.942;11.804;2023-02-11T16:20:47;13.10;;;3.90;;
21827;SDS011;11076;47.942;11.804;2023-02-11T16:25:54;6.07;;;3.90;;
21827;SDS011;11076;47.942;11.804;2023-02-11T16:31:00;9.20;;;3.30;;
21827;SDS011;11076;47.942;11.804;2023-02-11T16:36:13;5.13;;;3.13;;
21827;SDS011;11076;47.942;11.804;2023-02-11T16:41:20;20.33;;;3.37;;
21827;SDS011;11076;47.942;11.804;2023-02-11T16:46:22;5.67;;;3.43;;
21827;SDS011;11076;47.942;11.804;2023-02-11T16:51:24;17.27;;;4.27;;
21827;SDS011;11076;47.942;11.804;2023-02-11T16:56:27;7.53;;;3.80;;
21827;SDS011;11076;47.942;11.804;2023-02-11T17:01:30;9.03;;;4.97;;
21827;SDS011;11076;47.942;11.804;2023-02-11T17:06:33;13.03;;;5.03;;
21827;SDS011;11076;47.942;11.804;2023-02-11T17:11:36;7.67;;;3.20;;
21827;SDS011;11076;47.942;11.804;2023-02-11T17:16:38;28.80;;;4.70;;
21827;SDS011;11076;47.942;11.804;2023-02-11T17:21:41;13.33;;;6.00;;
21827;SDS011;11076;47.942;11.804;2023-02-11T17:26:44;14.50;;;6.57;;
21827;SDS011;11076;47.942;11.804;2023-02-11T17:31:47;16.50;;;6.60;;
21827;SDS011;11076;47.942;11.804;2023-02-11T17:36:50;15.87;;;7.10;;
21827;SDS011;11076;47.942;11.804;2023-02-11T17:41:52;21.70;;;7.13;;
21827;SDS011;11076;47.942;11.804;2023-02-11T17:46:55;22.97;;;9.77;;
21827;SDS011;11076;47.942;11.804;2023-02-11T17:51:57;34.73;;;9.67;;
21827;SDS011;11076;47.942;11.804;2023-02-11T17:56:59;21.03;;;10.03;;
21827;SDS011;11076;47.942;11.804;2023-02-11T18:02:02;25.30;;;8.80;;
21827;SDS011;11076;47.942;11.804;2023-02-11T18:07:05;27.43;;;9.53;;
21827;SDS011;11076;47.942;11.804;2023-02-11T18:12:07;27.00;;;9.37;;
21827;SDS011;11076;47.942;11.804;2023-02-11T18:17:11;44.93;;;14.20;;
21827;SDS011;11076;47.942;11.804;2023-02-11T18:22:14;48.73;;;13.63;;
21827;SDS011;11076;47.942;11.804;2023-02-11T18:27:17;50.60;;;13.90;;
21827;SDS011;11076;47.942;11.804;2023-02-11T18:32:19;44.80;;;14.40;;
21827;SDS011;11076;47.942;11.804;2023-02-11T18:37:22;79.50;;;19.40;;
21827;SDS011;11076;47.942;11.804;2023-02-11T18:42:24;82.37;;;21.23;;
21827;SDS011;11076;47.942;11.804;2023-02-11T18:47:27;40.33;;;13.27;;
21827;SDS011;11076;47.942;11.804;2023-02-11T18:52:30;112.70;;;33.53;;
21827;SDS011;11076;47.942;11.804;2023-02-11T18:57:32;64.20;;;21.07;;
21827;SDS011;11076;47.942;11.804;2023-02-11T19:02:35;44.17;;;16.00;;
21827;SDS011;11076;47.942;11.804;2023-02-11T19:07:38;36.33;;;13.67;;
21827;SDS011;11076;47.942;11.804;2023-02-11T19:12:40;34.80;;;13.57;;
21827;SDS011;11076;47.942;11.804;2023-02-11T19:17:42;27.50;;;11.00;;
21827;SDS011;11076;47.942;11.804;2023-02-11T19:22:46;24.03;;;11.27;;
21827;SDS011;11076;47.942;11.804;2023-02-11T19:27:48;28.23;;;10.93;;
21827;SDS011;11076;47.942;11.804;2023-02-11T19:32:51;28.17;;;11.13;;
21827;SDS011;11076;47.942;11.804;2023-02-11T19:37:54;23.20;;;10.63;;
21827;SDS011;11076;47.942;11.804;2023-02-11T19:42:56;39.23;;;11.67;;
21827;SDS011;11076;47.942;11.804;2023-02-11T19:47:58;18.87;;;9.70;;
21827;SDS011;11076;47.942;11.804;2023-02-11T19:53:01;20.50;;;9.80;;
21827;SDS011;11076;47.942;11.804;2023-02-11T19:58:04;18.17;;;9.53;;
21827;SDS011;11076;47.942;11.804;2023-02-11T20:03:06;18.70;;;8.60;;
21827;SDS011;11076;47.942;11.804;2023-02-11T20:08:09;21.03;;;9.20;;
21827;SDS011;11076;47.942;11.804;2023-02-11T20:13:11;16.10;;;8.77;;
21827;SDS011;11076;47.942;11.804;2023-02-11T20:18:13;26.83;;;10.43;;
21827;SDS011;11076;47.942;11.804;2023-02-11T20:23:16;19.73;;;10.17;;
21827;SDS011;11076;47.942;11.804;2023-02-11T20:28:18;20.67;;;11.17;;
21827;SDS011;11076;47.942;11.804;2023-02-11T20:33:20;20.13;;;9.73;;
21827;SDS011;11076;47.942;11.804;2023-02-11T20:38:23;20.97;;;11.17;;
21827;SDS011;11076;47.942;11.804;2023-02-11T20:43:26;25.20;;;11.43;;
21827;SDS011;11076;47.942;11.804;2023-02-11T20:48:28;20.83;;;10.67;;
21827;SDS011;11076;47.942;11.804;2023-02-11T20:53:33;20.53;;;10.97;;
21827;SDS011;11076;47.942;11.804;2023-02-11T20:58:36;25.13;;;10.90;;
21827;SDS011;11076;47.942;11.804;2023-02-11T21:03:39;21.30;;;10.40;;
21827;SDS011;11076;47.942;11.804;2023-02-11T21:08:44;14.33;;;8.57;;
21827;SDS011;11076;47.942;11.804;2023-02-11T21:13:49;15.93;;;8.50;;
21827;SDS011;11076;47.942;11.804;2023-02-11T21:18:52;22.73;;;9.50;;
21827;SDS011;11076;47.942;11.804;2023-02-11T21:23:54;17.37;;;8.53;;
21827;SDS011;11076;47.942;11.804;2023-02-11T21:28:57;16.87;;;8.93;;
21827;SDS011;11076;47.942;11.804;2023-02-11T21:33:59;17.27;;;8.60;;
21827;SDS011;11076;47.942;11.804;2023-02-11T21:39:02;28.90;;;10.97;;
21827;SDS011;11076;47.942;11.804;2023-02-11T21:44:05;23.77;;;11.00;;
21827;SDS011;11076;47.942;11.804;2023-02-11T21:49:07;29.33;;;12.97;;
21827;SDS011;11076;47.942;11.804;2023-02-11T21:54:10;48.43;;;17.47;;
21827;SDS011;11076;47.942;11.804;2023-02-11T21:59:13;28.17;;;10.43;;
21827;SDS011;11076;47.942;11.804;2023-02-11T22:04:15;33.20;;;13.30;;
21827;SDS011;11076;47.942;11.804;2023-02-11T22:09:18;20.97;;;10.30;;
21827;SDS011;11076;47.942;11.804;2023-02-11T22:14:20;18.93;;;9.73;;
21827;SDS011;11076;47.942;11.804;2023-02-11T22:19:23;28.43;;;12.60;;
21827;SDS011;11076;47.942;11.804;2023-02-11T22:24:26;31.73;;;14.20;;
21827;SDS011;11076;47.942;11.804;2023-02-11T22:29:28;27.43;;;11.80;;
21827;SDS011;11076;47.942;11.804;2023-02-11T22:34:30;21.30;;;9.83;;
21827;SDS011;11076;47.942;11.804;2023-02-11T22:39:33;22.13;;;10.70;;
21827;SDS011;11076;47.942;11.804;2023-02-11T22:44:36;22.37;;;11.27;;
21827;SDS011;11076;47.942;11.804;2023-02-11T22:49:38;23.63;;;12.90;;
21827;SDS011;11076;47.942;11.804;2023-02-11T22:54:42;24.50;;;13.40;;
21827;SDS011;11076;47.942;11.804;2023-02-11T22:59:44;27.93;;;11.63;;
21827;SDS011;11076;47.942;11.804;2023-02-11T23:04:47;18.47;;;9.57;;
21827;SDS011;11076;47.942;11.804;2023-02-11T23:09:50;21.13;;;9.83;;
21827;SDS011;11076;47.942;11.804;2023-02-11T23:14:53;19.10;;;9.70;;
21827;SDS011;11076;47.942;11.804;2023-02-11T23:19:55;15.23;;;8.53;;
21827;SDS011;11076;47.942;11.804;2023-02-11T23:24:57;18.13;;;11.03;;
21827;SDS011;11076;47.942;11.804;2023-02-11T23:30:00;23.07;;;13.07;;
21827;SDS011;11076;47.942;11.804;2023-02-11T23:35:02;19.40;;;11.77;;
21827;SDS011;11076;47.942;11.804;2023-02-11T23:40:05;17.87;;;10.07;;
21827;SDS011;11076;47.942;11.804;2023-02-11T23:45:08;16.43;;;9.10;;
21827;SDS011;11076;47.942;11.804;2023-02-11T23:50:11;20.13;;;9.53;;
21827;SDS011;11076;47.942;11.804;2023-02-11T23:55:13;13.50;;;8.07;;
